Terminal Aerodrome Forecast
Issued by NWS Quad Cities IA IL

Home | Current Version | Previous Version | Text Only | Print | Product List | Glossary On
Versions: 1 2 3 4 5 6 7 8 9 10 11 12 13 14 15 16 17 18
000
FTUS43 KDVN 291400 AAB
TAFDBQ
TAF AMD
KDBQ 291413Z 2914/3012 15007KT 6SM BR SCT003 BKN060
      TEMPO 2914/2916 5SM BR BKN006
     FM291600 17010KT P6SM SCT030 BKN080
     FM292300 20011KT P6SM VCTS BKN080CB
      TEMPO 2923/3003 3SM -TSRA BKN035CB
     FM300300 19007KT 3SM -TSRA BR OVC020CB
     FM300600 23004KT 4SM BR VCSH OVC008=

USA.gov is the U.S. government's official web portal to all federal, state and local government web resources and services.